sensor_id;sensor_type;location;lat;lon;timestamp;P1;durP1;ratioP1;P2;durP2;ratioP2
43070;SDS011;36278;47.952;21.714;2022-12-10T00:00:54;44.10;;;32.57;;
43070;SDS011;36278;47.952;21.714;2022-12-10T00:03:19;48.27;;;32.90;;
43070;SDS011;36278;47.952;21.714;2022-12-10T00:05:45;46.87;;;34.00;;
43070;SDS011;36278;47.952;21.714;2022-12-10T00:08:10;43.57;;;32.50;;
43070;SDS011;36278;47.952;21.714;2022-12-10T00:10:39;41.20;;;31.40;;
43070;SDS011;36278;47.952;21.714;2022-12-10T00:13:05;43.60;;;31.07;;
43070;SDS011;36278;47.952;21.714;2022-12-10T00:15:33;41.50;;;29.00;;
43070;SDS011;36278;47.952;21.714;2022-12-10T00:17:59;38.27;;;25.43;;
43070;SDS011;36278;47.952;21.714;2022-12-10T00:20:25;33.00;;;22.10;;
43070;SDS011;36278;47.952;21.714;2022-12-10T00:22:50;33.10;;;18.83;;
43070;SDS011;36278;47.952;21.714;2022-12-10T00:25:16;30.03;;;16.60;;
43070;SDS011;36278;47.952;21.714;2022-12-10T00:27:42;30.53;;;15.67;;
43070;SDS011;36278;47.952;21.714;2022-12-10T00:30:07;25.53;;;12.17;;
43070;SDS011;36278;47.952;21.714;2022-12-10T00:32:33;24.77;;;10.50;;
43070;SDS011;36278;47.952;21.714;2022-12-10T00:34:58;18.10;;;8.83;;
43070;SDS011;36278;47.952;21.714;2022-12-10T00:37:24;27.60;;;9.10;;
43070;SDS011;36278;47.952;21.714;2022-12-10T00:39:49;19.10;;;7.47;;
43070;SDS011;36278;47.952;21.714;2022-12-10T00:42:15;16.63;;;7.30;;
43070;SDS011;36278;47.952;21.714;2022-12-10T00:44:40;18.43;;;6.30;;
43070;SDS011;36278;47.952;21.714;2022-12-10T00:47:05;23.80;;;6.97;;
43070;SDS011;36278;47.952;21.714;2022-12-10T00:49:31;19.97;;;7.33;;
43070;SDS011;36278;47.952;21.714;2022-12-10T00:51:56;27.40;;;11.10;;
43070;SDS011;36278;47.952;21.714;2022-12-10T00:54:22;31.10;;;14.47;;
43070;SDS011;36278;47.952;21.714;2022-12-10T00:56:47;21.33;;;6.87;;
43070;SDS011;36278;47.952;21.714;2022-12-10T00:59:12;17.07;;;6.97;;
43070;SDS011;36278;47.952;21.714;2022-12-10T01:01:39;16.20;;;6.17;;
43070;SDS011;36278;47.952;21.714;2022-12-10T01:04:07;18.53;;;7.60;;
43070;SDS011;36278;47.952;21.714;2022-12-10T01:06:44;19.80;;;7.83;;
43070;SDS011;36278;47.952;21.714;2022-12-10T01:09:10;18.30;;;7.20;;
43070;SDS011;36278;47.952;21.714;2022-12-10T01:11:38;21.50;;;7.50;;
43070;SDS011;36278;47.952;21.714;2022-12-10T01:14:06;20.57;;;7.30;;
43070;SDS011;36278;47.952;21.714;2022-12-10T01:16:33;17.80;;;7.60;;
43070;SDS011;36278;47.952;21.714;2022-12-10T01:18:59;20.03;;;7.53;;
43070;SDS011;36278;47.952;21.714;2022-12-10T01:21:25;16.00;;;7.40;;
43070;SDS011;36278;47.952;21.714;2022-12-10T01:23:52;18.73;;;7.10;;
43070;SDS011;36278;47.952;21.714;2022-12-10T01:26:19;16.77;;;7.47;;
43070;SDS011;36278;47.952;21.714;2022-12-10T01:28:46;17.07;;;7.53;;
43070;SDS011;36278;47.952;21.714;2022-12-10T01:31:14;18.40;;;7.63;;
43070;SDS011;36278;47.952;21.714;2022-12-10T01:33:42;20.17;;;8.30;;
43070;SDS011;36278;47.952;21.714;2022-12-10T01:36:11;17.17;;;7.27;;
43070;SDS011;36278;47.952;21.714;2022-12-10T01:38:38;16.40;;;7.60;;
43070;SDS011;36278;47.952;21.714;2022-12-10T01:41:05;21.00;;;8.17;;
43070;SDS011;36278;47.952;21.714;2022-12-10T01:43:48;16.07;;;7.27;;
43070;SDS011;36278;47.952;21.714;2022-12-10T01:46:17;14.00;;;7.23;;
43070;SDS011;36278;47.952;21.714;2022-12-10T01:48:43;24.60;;;9.00;;
43070;SDS011;36278;47.952;21.714;2022-12-10T01:51:09;19.80;;;7.90;;
43070;SDS011;36278;47.952;21.714;2022-12-10T01:53:35;17.63;;;7.83;;
43070;SDS011;36278;47.952;21.714;2022-12-10T01:56:01;20.37;;;7.73;;
43070;SDS011;36278;47.952;21.714;2022-12-10T01:58:27;23.00;;;8.43;;
43070;SDS011;36278;47.952;21.714;2022-12-10T02:00:58;24.43;;;7.60;;
43070;SDS011;36278;47.952;21.714;2022-12-10T02:07:00;21.53;;;8.07;;
43070;SDS011;36278;47.952;21.714;2022-12-10T02:14:17;21.63;;;7.82;;
43070;SDS011;36278;47.952;21.714;2022-12-10T02:16:57;19.20;;;7.60;;
43070;SDS011;36278;47.952;21.714;2022-12-10T02:22:01;17.57;;;6.83;;
43070;SDS011;36278;47.952;21.714;2022-12-10T02:24:30;12.80;;;6.63;;
43070;SDS011;36278;47.952;21.714;2022-12-10T02:27:06;18.83;;;7.33;;
43070;SDS011;36278;47.952;21.714;2022-12-10T02:29:40;18.03;;;7.50;;
43070;SDS011;36278;47.952;21.714;2022-12-10T02:32:12;17.57;;;7.60;;
43070;SDS011;36278;47.952;21.714;2022-12-10T02:34:48;17.42;;;7.18;;
43070;SDS011;36278;47.952;21.714;2022-12-10T02:37:21;18.37;;;7.00;;
43070;SDS011;36278;47.952;21.714;2022-12-10T02:39:53;17.97;;;7.63;;
43070;SDS011;36278;47.952;21.714;2022-12-10T02:42:21;22.07;;;8.10;;
43070;SDS011;36278;47.952;21.714;2022-12-10T02:44:49;17.17;;;6.87;;
43070;SDS011;36278;47.952;21.714;2022-12-10T02:47:16;14.07;;;7.23;;
43070;SDS011;36278;47.952;21.714;2022-12-10T02:49:44;20.37;;;8.57;;
43070;SDS011;36278;47.952;21.714;2022-12-10T02:52:13;16.67;;;7.43;;
43070;SDS011;36278;47.952;21.714;2022-12-10T03:00:00;14.83;;;7.97;;
43070;SDS011;36278;47.952;21.714;2022-12-10T03:08:33;17.70;;;7.93;;
43070;SDS011;36278;47.952;21.714;2022-12-10T03:11:38;15.47;;;7.53;;
43070;SDS011;36278;47.952;21.714;2022-12-10T03:14:02;17.60;;;7.30;;
43070;SDS011;36278;47.952;21.714;2022-12-10T03:16:36;16.63;;;7.33;;
43070;SDS011;36278;47.952;21.714;2022-12-10T03:19:07;21.00;;;8.47;;
43070;SDS011;36278;47.952;21.714;2022-12-10T03:21:46;16.20;;;8.37;;
43070;SDS011;36278;47.952;21.714;2022-12-10T03:24:14;17.57;;;7.97;;
43070;SDS011;36278;47.952;21.714;2022-12-10T03:26:41;16.23;;;8.50;;
43070;SDS011;36278;47.952;21.714;2022-12-10T03:29:09;16.40;;;7.20;;
43070;SDS011;36278;47.952;21.714;2022-12-10T03:31:39;17.87;;;8.37;;
43070;SDS011;36278;47.952;21.714;2022-12-10T03:34:06;23.07;;;8.77;;
43070;SDS011;36278;47.952;21.714;2022-12-10T03:36:34;15.33;;;8.30;;
43070;SDS011;36278;47.952;21.714;2022-12-10T03:39:00;19.97;;;8.83;;
43070;SDS011;36278;47.952;21.714;2022-12-10T03:41:26;21.87;;;8.47;;
43070;SDS011;36278;47.952;21.714;2022-12-10T03:43:52;17.53;;;7.93;;
43070;SDS011;36278;47.952;21.714;2022-12-10T03:46:20;19.23;;;8.23;;
43070;SDS011;36278;47.952;21.714;2022-12-10T03:48:46;18.33;;;9.20;;
43070;SDS011;36278;47.952;21.714;2022-12-10T03:51:11;17.80;;;8.67;;
43070;SDS011;36278;47.952;21.714;2022-12-10T03:53:36;18.07;;;8.60;;
43070;SDS011;36278;47.952;21.714;2022-12-10T03:56:02;14.13;;;8.27;;
43070;SDS011;36278;47.952;21.714;2022-12-10T03:58:27;17.23;;;8.57;;
43070;SDS011;36278;47.952;21.714;2022-12-10T04:00:53;16.20;;;8.00;;
43070;SDS011;36278;47.952;21.714;2022-12-10T04:03:18;19.37;;;9.80;;
43070;SDS011;36278;47.952;21.714;2022-12-10T04:05:44;22.90;;;8.70;;
43070;SDS011;36278;47.952;21.714;2022-12-10T04:08:09;18.67;;;8.87;;
43070;SDS011;36278;47.952;21.714;2022-12-10T04:10:36;16.87;;;8.70;;
43070;SDS011;36278;47.952;21.714;2022-12-10T04:13:02;14.90;;;8.47;;
43070;SDS011;36278;47.952;21.714;2022-12-10T04:15:47;21.03;;;9.20;;
43070;SDS011;36278;47.952;21.714;2022-12-10T04:18:31;17.60;;;9.57;;
43070;SDS011;36278;47.952;21.714;2022-12-10T04:20:56;15.13;;;9.37;;
43070;SDS011;36278;47.952;21.714;2022-12-10T04:23:40;21.23;;;10.03;;
43070;SDS011;36278;47.952;21.714;2022-12-10T04:26:24;20.73;;;9.47;;
43070;SDS011;36278;47.952;21.714;2022-12-10T04:29:09;16.47;;;9.87;;
43070;SDS011;36278;47.952;21.714;2022-12-10T04:31:34;15.30;;;10.00;;
43070;SDS011;36278;47.952;21.714;2022-12-10T04:34:00;18.00;;;9.83;;
43070;SDS011;36278;47.952;21.714;2022-12-10T04:36:26;18.83;;;10.30;;
43070;SDS011;36278;47.952;21.714;2022-12-10T04:38:51;18.20;;;10.30;;
43070;SDS011;36278;47.952;21.714;2022-12-10T04:41:17;16.53;;;10.70;;
43070;SDS011;36278;47.952;21.714;2022-12-10T04:43:42;20.33;;;10.67;;
43070;SDS011;36278;47.952;21.714;2022-12-10T04:46:11;19.77;;;11.27;;
43070;SDS011;36278;47.952;21.714;2022-12-10T04:48:36;21.80;;;10.90;;
43070;SDS011;36278;47.952;21.714;2022-12-10T04:51:02;19.80;;;12.70;;
43070;SDS011;36278;47.952;21.714;2022-12-10T04:53:28;22.10;;;11.20;;
43070;SDS011;36278;47.952;21.714;2022-12-10T04:55:53;18.93;;;11.47;;
43070;SDS011;36278;47.952;21.714;2022-12-10T04:58:19;21.53;;;12.60;;
43070;SDS011;36278;47.952;21.714;2022-12-10T05:00:44;21.67;;;11.53;;
43070;SDS011;36278;47.952;21.714;2022-12-10T05:03:10;20.93;;;13.13;;
43070;SDS011;36278;47.952;21.714;2022-12-10T05:05:35;23.80;;;13.50;;
43070;SDS011;36278;47.952;21.714;2022-12-10T05:08:01;21.23;;;12.50;;
43070;SDS011;36278;47.952;21.714;2022-12-10T05:10:27;23.47;;;13.20;;
43070;SDS011;36278;47.952;21.714;2022-12-10T05:12:52;25.00;;;14.00;;
43070;SDS011;36278;47.952;21.714;2022-12-10T05:15:18;28.50;;;13.33;;
43070;SDS011;36278;47.952;21.714;2022-12-10T05:17:43;23.00;;;13.40;;
43070;SDS011;36278;47.952;21.714;2022-12-10T05:20:09;25.03;;;13.77;;
43070;SDS011;36278;47.952;21.714;2022-12-10T05:22:35;24.10;;;14.87;;
43070;SDS011;36278;47.952;21.714;2022-12-10T05:25:19;21.23;;;13.90;;
43070;SDS011;36278;47.952;21.714;2022-12-10T05:27:44;21.97;;;13.83;;
43070;SDS011;36278;47.952;21.714;2022-12-10T05:30:10;27.83;;;14.93;;
43070;SDS011;36278;47.952;21.714;2022-12-10T05:32:36;22.00;;;14.43;;
43070;SDS011;36278;47.952;21.714;2022-12-10T05:35:02;28.17;;;13.60;;
43070;SDS011;36278;47.952;21.714;2022-12-10T05:37:28;28.17;;;14.67;;
43070;SDS011;36278;47.952;21.714;2022-12-10T05:39:53;24.40;;;14.47;;
43070;SDS011;36278;47.952;21.714;2022-12-10T05:42:19;26.10;;;13.73;;
43070;SDS011;36278;47.952;21.714;2022-12-10T05:44:44;27.00;;;15.10;;
43070;SDS011;36278;47.952;21.714;2022-12-10T05:47:10;26.20;;;14.17;;
43070;SDS011;36278;47.952;21.714;2022-12-10T05:49:35;23.37;;;15.00;;
43070;SDS011;36278;47.952;21.714;2022-12-10T05:52:01;27.97;;;14.00;;
43070;SDS011;36278;47.952;21.714;2022-12-10T05:54:26;25.87;;;14.70;;
43070;SDS011;36278;47.952;21.714;2022-12-10T05:56:52;22.03;;;14.07;;
43070;SDS011;36278;47.952;21.714;2022-12-10T05:59:18;21.83;;;13.83;;
43070;SDS011;36278;47.952;21.714;2022-12-10T06:01:44;25.53;;;13.73;;
43070;SDS011;36278;47.952;21.714;2022-12-10T06:04:09;21.60;;;13.37;;
43070;SDS011;36278;47.952;21.714;2022-12-10T06:06:36;22.13;;;14.10;;
43070;SDS011;36278;47.952;21.714;2022-12-10T06:09:03;21.20;;;13.47;;
43070;SDS011;36278;47.952;21.714;2022-12-10T06:11:30;22.90;;;14.00;;
43070;SDS011;36278;47.952;21.714;2022-12-10T06:13:56;26.10;;;15.33;;
43070;SDS011;36278;47.952;21.714;2022-12-10T06:16:22;27.10;;;15.37;;
43070;SDS011;36278;47.952;21.714;2022-12-10T06:18:48;31.73;;;15.93;;
43070;SDS011;36278;47.952;21.714;2022-12-10T06:21:14;25.53;;;15.00;;
43070;SDS011;36278;47.952;21.714;2022-12-10T06:23:41;21.53;;;15.57;;
43070;SDS011;36278;47.952;21.714;2022-12-10T06:26:08;25.30;;;17.03;;
43070;SDS011;36278;47.952;21.714;2022-12-10T06:28:41;25.53;;;15.30;;
43070;SDS011;36278;47.952;21.714;2022-12-10T06:31:08;23.90;;;15.37;;
43070;SDS011;36278;47.952;21.714;2022-12-10T06:33:34;27.97;;;16.53;;
43070;SDS011;36278;47.952;21.714;2022-12-10T06:36:02;28.03;;;15.20;;
43070;SDS011;36278;47.952;21.714;2022-12-10T06:38:29;25.80;;;14.83;;
43070;SDS011;36278;47.952;21.714;2022-12-10T06:40:55;19.90;;;14.80;;
43070;SDS011;36278;47.952;21.714;2022-12-10T06:43:20;18.27;;;14.13;;
43070;SDS011;36278;47.952;21.714;2022-12-10T06:45:46;21.20;;;14.33;;
43070;SDS011;36278;47.952;21.714;2022-12-10T06:48:11;21.37;;;15.10;;
43070;SDS011;36278;47.952;21.714;2022-12-10T06:50:36;22.27;;;14.53;;
43070;SDS011;36278;47.952;21.714;2022-12-10T06:53:02;21.17;;;14.60;;
43070;SDS011;36278;47.952;21.714;2022-12-10T06:55:28;24.47;;;14.67;;
43070;SDS011;36278;47.952;21.714;2022-12-10T06:57:53;25.17;;;14.77;;
43070;SDS011;36278;47.952;21.714;2022-12-10T07:00:19;20.30;;;14.87;;
43070;SDS011;36278;47.952;21.714;2022-12-10T07:02:45;25.13;;;16.17;;
43070;SDS011;36278;47.952;21.714;2022-12-10T07:05:11;24.67;;;15.67;;
43070;SDS011;36278;47.952;21.714;2022-12-10T07:07:36;23.40;;;15.90;;
43070;SDS011;36278;47.952;21.714;2022-12-10T07:10:03;28.20;;;16.67;;
43070;SDS011;36278;47.952;21.714;2022-12-10T07:12:29;30.33;;;16.37;;
43070;SDS011;36278;47.952;21.714;2022-12-10T07:14:54;27.70;;;15.47;;
43070;SDS011;36278;47.952;21.714;2022-12-10T07:17:20;23.33;;;15.10;;
43070;SDS011;36278;47.952;21.714;2022-12-10T07:19:45;29.33;;;16.00;;
43070;SDS011;36278;47.952;21.714;2022-12-10T07:22:11;32.47;;;20.73;;
43070;SDS011;36278;47.952;21.714;2022-12-10T07:24:36;26.00;;;18.67;;
43070;SDS011;36278;47.952;21.714;2022-12-10T07:27:04;28.40;;;18.10;;
43070;SDS011;36278;47.952;21.714;2022-12-10T07:29:30;25.10;;;17.63;;
43070;SDS011;36278;47.952;21.714;2022-12-10T07:31:55;27.67;;;17.03;;
43070;SDS011;36278;47.952;21.714;2022-12-10T07:34:21;31.00;;;17.73;;
43070;SDS011;36278;47.952;21.714;2022-12-10T07:36:46;31.17;;;18.17;;
43070;SDS011;36278;47.952;21.714;2022-12-10T07:39:12;36.00;;;20.30;;
43070;SDS011;36278;47.952;21.714;2022-12-10T07:41:48;30.50;;;18.63;;
43070;SDS011;36278;47.952;21.714;2022-12-10T07:44:18;35.60;;;19.70;;
43070;SDS011;36278;47.952;21.714;2022-12-10T07:46:53;29.33;;;19.13;;
43070;SDS011;36278;47.952;21.714;2022-12-10T07:49:19;29.87;;;19.50;;
43070;SDS011;36278;47.952;21.714;2022-12-10T07:51:46;38.20;;;19.60;;
43070;SDS011;36278;47.952;21.714;2022-12-10T07:54:13;37.50;;;19.93;;
43070;SDS011;36278;47.952;21.714;2022-12-10T07:56:38;41.57;;;20.93;;
43070;SDS011;36278;47.952;21.714;2022-12-10T07:59:04;39.67;;;20.10;;
43070;SDS011;36278;47.952;21.714;2022-12-10T08:01:29;38.77;;;21.03;;
43070;SDS011;36278;47.952;21.714;2022-12-10T08:03:55;41.43;;;22.17;;
43070;SDS011;36278;47.952;21.714;2022-12-10T08:06:22;39.83;;;22.87;;
43070;SDS011;36278;47.952;21.714;2022-12-10T08:08:48;48.60;;;24.97;;
43070;SDS011;36278;47.952;21.714;2022-12-10T08:11:15;53.57;;;24.20;;
43070;SDS011;36278;47.952;21.714;2022-12-10T08:13:42;42.40;;;23.43;;
43070;SDS011;36278;47.952;21.714;2022-12-10T08:16:15;51.83;;;23.60;;
43070;SDS011;36278;47.952;21.714;2022-12-10T08:18:42;48.37;;;24.37;;
43070;SDS011;36278;47.952;21.714;2022-12-10T08:21:13;43.93;;;22.83;;
43070;SDS011;36278;47.952;21.714;2022-12-10T08:23:43;44.33;;;23.43;;
43070;SDS011;36278;47.952;21.714;2022-12-10T08:26:10;41.20;;;21.63;;
43070;SDS011;36278;47.952;21.714;2022-12-10T08:28:39;37.90;;;23.07;;
43070;SDS011;36278;47.952;21.714;2022-12-10T08:31:06;44.67;;;23.97;;
43070;SDS011;36278;47.952;21.714;2022-12-10T08:33:34;45.70;;;21.90;;
43070;SDS011;36278;47.952;21.714;2022-12-10T08:35:59;44.83;;;24.00;;
43070;SDS011;36278;47.952;21.714;2022-12-10T08:38:26;43.23;;;24.47;;
43070;SDS011;36278;47.952;21.714;2022-12-10T08:40:53;50.17;;;25.90;;
43070;SDS011;36278;47.952;21.714;2022-12-10T08:43:18;45.63;;;27.33;;
43070;SDS011;36278;47.952;21.714;2022-12-10T08:45:44;54.43;;;27.83;;
43070;SDS011;36278;47.952;21.714;2022-12-10T08:48:10;52.73;;;28.43;;
43070;SDS011;36278;47.952;21.714;2022-12-10T08:50:36;61.73;;;30.50;;
43070;SDS011;36278;47.952;21.714;2022-12-10T08:53:02;80.90;;;30.17;;
43070;SDS011;36278;47.952;21.714;2022-12-10T08:55:28;82.83;;;30.53;;
43070;SDS011;36278;47.952;21.714;2022-12-10T08:57:53;73.40;;;29.40;;
43070;SDS011;36278;47.952;21.714;2022-12-10T09:00:19;91.77;;;28.30;;
43070;SDS011;36278;47.952;21.714;2022-12-10T09:02:45;77.33;;;28.77;;
43070;SDS011;36278;47.952;21.714;2022-12-10T09:05:11;66.37;;;28.27;;
43070;SDS011;36278;47.952;21.714;2022-12-10T09:07:37;78.27;;;28.47;;
43070;SDS011;36278;47.952;21.714;2022-12-10T09:10:03;86.53;;;26.13;;
43070;SDS011;36278;47.952;21.714;2022-12-10T09:12:28;83.80;;;23.70;;
43070;SDS011;36278;47.952;21.714;2022-12-10T09:14:54;55.10;;;24.17;;
43070;SDS011;36278;47.952;21.714;2022-12-10T09:17:21;77.17;;;24.73;;
43070;SDS011;36278;47.952;21.714;2022-12-10T09:19:46;65.80;;;24.53;;
43070;SDS011;36278;47.952;21.714;2022-12-10T09:22:12;65.87;;;24.73;;
43070;SDS011;36278;47.952;21.714;2022-12-10T09:24:38;106.43;;;27.03;;
43070;SDS011;36278;47.952;21.714;2022-12-10T09:27:04;105.83;;;26.03;;
43070;SDS011;36278;47.952;21.714;2022-12-10T09:29:29;93.83;;;25.43;;
43070;SDS011;36278;47.952;21.714;2022-12-10T09:31:54;95.33;;;27.20;;
43070;SDS011;36278;47.952;21.714;2022-12-10T09:34:20;91.67;;;27.60;;
43070;SDS011;36278;47.952;21.714;2022-12-10T09:36:46;117.43;;;28.70;;
43070;SDS011;36278;47.952;21.714;2022-12-10T09:39:13;79.37;;;26.17;;
43070;SDS011;36278;47.952;21.714;2022-12-10T09:46:57;111.07;;;28.03;;
43070;SDS011;36278;47.952;21.714;2022-12-10T09:52:29;74.63;;;26.48;;
43070;SDS011;36278;47.952;21.714;2022-12-10T09:55:10;73.60;;;27.30;;
43070;SDS011;36278;47.952;21.714;2022-12-10T09:57:40;69.97;;;28.73;;
43070;SDS011;36278;47.952;21.714;2022-12-10T10:00:17;57.47;;;24.70;;
43070;SDS011;36278;47.952;21.714;2022-12-10T10:02:54;37.63;;;17.47;;
43070;SDS011;36278;47.952;21.714;2022-12-10T10:05:25;23.37;;;12.43;;
43070;SDS011;36278;47.952;21.714;2022-12-10T10:07:57;22.00;;;11.00;;
43070;SDS011;36278;47.952;21.714;2022-12-10T10:10:33;23.00;;;10.85;;
43070;SDS011;36278;47.952;21.714;2022-12-10T10:13:09;19.07;;;9.73;;
43070;SDS011;36278;47.952;21.714;2022-12-10T10:15:41;18.50;;;8.70;;
43070;SDS011;36278;47.952;21.714;2022-12-10T10:18:11;17.73;;;9.17;;
43070;SDS011;36278;47.952;21.714;2022-12-10T10:20:41;15.68;;;8.93;;
43070;SDS011;36278;47.952;21.714;2022-12-10T10:23:08;15.30;;;7.57;;
43070;SDS011;36278;47.952;21.714;2022-12-10T10:25:37;15.73;;;7.97;;
43070;SDS011;36278;47.952;21.714;2022-12-10T10:28:03;12.50;;;6.97;;
43070;SDS011;36278;47.952;21.714;2022-12-10T10:30:28;11.90;;;7.33;;
43070;SDS011;36278;47.952;21.714;2022-12-10T10:32:56;12.07;;;6.97;;
43070;SDS011;36278;47.952;21.714;2022-12-10T10:35:27;11.73;;;7.03;;
43070;SDS011;36278;47.952;21.714;2022-12-10T10:38:01;11.60;;;6.43;;
43070;SDS011;36278;47.952;21.714;2022-12-10T10:40:39;9.57;;;7.33;;
43070;SDS011;36278;47.952;21.714;2022-12-10T10:43:12;12.23;;;7.17;;
43070;SDS011;36278;47.952;21.714;2022-12-10T10:45:43;11.23;;;7.13;;
43070;SDS011;36278;47.952;21.714;2022-12-10T10:48:15;12.27;;;7.80;;
43070;SDS011;36278;47.952;21.714;2022-12-10T10:50:53;9.27;;;6.67;;
43070;SDS011;36278;47.952;21.714;2022-12-10T10:53:31;9.40;;;6.97;;
43070;SDS011;36278;47.952;21.714;2022-12-10T10:56:06;9.37;;;7.37;;
43070;SDS011;36278;47.952;21.714;2022-12-10T11:01:16;12.53;;;7.37;;
43070;SDS011;36278;47.952;21.714;2022-12-10T11:03:48;8.80;;;6.67;;
43070;SDS011;36278;47.952;21.714;2022-12-10T11:06:18;9.03;;;7.30;;
43070;SDS011;36278;47.952;21.714;2022-12-10T11:08:44;11.27;;;7.17;;
43070;SDS011;36278;47.952;21.714;2022-12-10T11:14:24;8.30;;;6.27;;
43070;SDS011;36278;47.952;21.714;2022-12-10T11:22:28;9.40;;;6.30;;
43070;SDS011;36278;47.952;21.714;2022-12-10T11:24:55;11.03;;;6.70;;
43070;SDS011;36278;47.952;21.714;2022-12-10T11:38:15;13.70;;;8.50;;
43070;SDS011;36278;47.952;21.714;2022-12-10T11:40:53;14.47;;;9.10;;
43070;SDS011;36278;47.952;21.714;2022-12-10T11:43:41;12.37;;;8.93;;
43070;SDS011;36278;47.952;21.714;2022-12-10T11:59:41;13.53;;;7.87;;
43070;SDS011;36278;47.952;21.714;2022-12-10T12:13:15;9.00;;;6.50;;
43070;SDS011;36278;47.952;21.714;2022-12-10T12:15:53;9.53;;;6.80;;
43070;SDS011;36278;47.952;21.714;2022-12-10T12:18:23;9.47;;;6.67;;
43070;SDS011;36278;47.952;21.714;2022-12-10T12:20:58;9.90;;;7.20;;
43070;SDS011;36278;47.952;21.714;2022-12-10T12:26:19;12.77;;;7.60;;
43070;SDS011;36278;47.952;21.714;2022-12-10T12:31:35;9.90;;;7.10;;
43070;SDS011;36278;47.952;21.714;2022-12-10T12:34:16;9.13;;;7.10;;
43070;SDS011;36278;47.952;21.714;2022-12-10T12:36:46;10.00;;;7.53;;
43070;SDS011;36278;47.952;21.714;2022-12-10T12:49:56;9.33;;;7.37;;
43070;SDS011;36278;47.952;21.714;2022-12-10T12:52:43;10.87;;;7.13;;
43070;SDS011;36278;47.952;21.714;2022-12-10T12:55:27;9.23;;;6.97;;
43070;SDS011;36278;47.952;21.714;2022-12-10T12:58:11;12.18;;;8.02;;
43070;SDS011;36278;47.952;21.714;2022-12-10T13:00:40;11.43;;;7.60;;
43070;SDS011;36278;47.952;21.714;2022-12-10T13:03:20;8.37;;;6.57;;
43070;SDS011;36278;47.952;21.714;2022-12-10T13:05:49;11.03;;;6.80;;
43070;SDS011;36278;47.952;21.714;2022-12-10T13:15:52;8.67;;;6.90;;
43070;SDS011;36278;47.952;21.714;2022-12-10T13:18:35;8.53;;;6.20;;
43070;SDS011;36278;47.952;21.714;2022-12-10T13:21:16;11.03;;;7.27;;
43070;SDS011;36278;47.952;21.714;2022-12-10T13:24:04;10.20;;;7.23;;
43070;SDS011;36278;47.952;21.714;2022-12-10T13:26:32;11.73;;;8.43;;
43070;SDS011;36278;47.952;21.714;2022-12-10T13:34:42;9.75;;;7.13;;
43070;SDS011;36278;47.952;21.714;2022-12-10T13:42:55;9.10;;;7.00;;
43070;SDS011;36278;47.952;21.714;2022-12-10T13:48:59;12.53;;;8.33;;
43070;SDS011;36278;47.952;21.714;2022-12-10T13:57:12;12.50;;;9.03;;
43070;SDS011;36278;47.952;21.714;2022-12-10T14:08:05;11.35;;;9.00;;
43070;SDS011;36278;47.952;21.714;2022-12-10T14:10:34;12.73;;;9.67;;
43070;SDS011;36278;47.952;21.714;2022-12-10T14:13:02;13.57;;;9.17;;
43070;SDS011;36278;47.952;21.714;2022-12-10T14:15:29;12.50;;;8.73;;
43070;SDS011;36278;47.952;21.714;2022-12-10T14:18:00;11.03;;;8.70;;
43070;SDS011;36278;47.952;21.714;2022-12-10T14:20:31;13.53;;;8.70;;
43070;SDS011;36278;47.952;21.714;2022-12-10T14:23:03;13.27;;;10.57;;
43070;SDS011;36278;47.952;21.714;2022-12-10T14:25:49;14.90;;;10.13;;
43070;SDS011;36278;47.952;21.714;2022-12-10T14:28:16;13.70;;;10.83;;
43070;SDS011;36278;47.952;21.714;2022-12-10T14:30:47;14.57;;;10.90;;
43070;SDS011;36278;47.952;21.714;2022-12-10T14:33:19;14.53;;;10.70;;
43070;SDS011;36278;47.952;21.714;2022-12-10T14:35:48;16.25;;;11.05;;
43070;SDS011;36278;47.952;21.714;2022-12-10T14:38:18;16.03;;;10.50;;
43070;SDS011;36278;47.952;21.714;2022-12-10T14:40:46;12.77;;;9.60;;
43070;SDS011;36278;47.952;21.714;2022-12-10T14:43:19;12.73;;;9.67;;
43070;SDS011;36278;47.952;21.714;2022-12-10T14:48:16;16.27;;;10.23;;
43070;SDS011;36278;47.952;21.714;2022-12-10T14:50:43;12.87;;;10.67;;
43070;SDS011;36278;47.952;21.714;2022-12-10T14:53:11;13.37;;;10.43;;
43070;SDS011;36278;47.952;21.714;2022-12-10T14:55:39;13.70;;;10.10;;
43070;SDS011;36278;47.952;21.714;2022-12-10T14:58:05;15.37;;;10.23;;
43070;SDS011;36278;47.952;21.714;2022-12-10T15:00:38;13.40;;;10.48;;
43070;SDS011;36278;47.952;21.714;2022-12-10T15:03:09;12.03;;;9.40;;
43070;SDS011;36278;47.952;21.714;2022-12-10T15:05:36;11.93;;;9.57;;
43070;SDS011;36278;47.952;21.714;2022-12-10T15:08:07;12.57;;;9.47;;
43070;SDS011;36278;47.952;21.714;2022-12-10T15:10:40;12.67;;;8.57;;
43070;SDS011;36278;47.952;21.714;2022-12-10T15:13:15;11.40;;;9.57;;
43070;SDS011;36278;47.952;21.714;2022-12-10T15:15:44;11.70;;;8.97;;
43070;SDS011;36278;47.952;21.714;2022-12-10T15:18:25;11.80;;;9.00;;
43070;SDS011;36278;47.952;21.714;2022-12-10T15:21:03;13.77;;;9.93;;
43070;SDS011;36278;47.952;21.714;2022-12-10T15:28:44;13.57;;;9.93;;
43070;SDS011;36278;47.952;21.714;2022-12-10T15:33:58;12.63;;;10.10;;
43070;SDS011;36278;47.952;21.714;2022-12-10T15:36:33;13.67;;;9.60;;
43070;SDS011;36278;47.952;21.714;2022-12-10T15:39:23;15.20;;;10.20;;
43070;SDS011;36278;47.952;21.714;2022-12-10T15:41:52;13.87;;;11.47;;
43070;SDS011;36278;47.952;21.714;2022-12-10T15:46:57;14.43;;;10.17;;
43070;SDS011;36278;47.952;21.714;2022-12-10T15:49:23;14.33;;;10.57;;
43070;SDS011;36278;47.952;21.714;2022-12-10T15:51:49;14.00;;;10.03;;
43070;SDS011;36278;47.952;21.714;2022-12-10T15:56:52;17.87;;;11.13;;
43070;SDS011;36278;47.952;21.714;2022-12-10T15:59:18;15.03;;;11.43;;
43070;SDS011;36278;47.952;21.714;2022-12-10T16:01:44;16.50;;;10.93;;
43070;SDS011;36278;47.952;21.714;2022-12-10T16:04:10;14.80;;;10.43;;
43070;SDS011;36278;47.952;21.714;2022-12-10T16:06:36;15.43;;;11.40;;
43070;SDS011;36278;47.952;21.714;2022-12-10T16:09:01;16.23;;;11.33;;
43070;SDS011;36278;47.952;21.714;2022-12-10T16:11:27;14.47;;;11.47;;
43070;SDS011;36278;47.952;21.714;2022-12-10T16:13:53;16.10;;;11.13;;
43070;SDS011;36278;47.952;21.714;2022-12-10T16:16:24;17.60;;;11.47;;
43070;SDS011;36278;47.952;21.714;2022-12-10T16:18:50;16.23;;;11.87;;
43070;SDS011;36278;47.952;21.714;2022-12-10T16:21:16;14.47;;;11.70;;
43070;SDS011;36278;47.952;21.714;2022-12-10T16:23:41;14.77;;;11.43;;
43070;SDS011;36278;47.952;21.714;2022-12-10T16:26:14;15.80;;;10.73;;
43070;SDS011;36278;47.952;21.714;2022-12-10T16:28:43;17.50;;;11.80;;
43070;SDS011;36278;47.952;21.714;2022-12-10T16:31:10;16.73;;;11.97;;
43070;SDS011;36278;47.952;21.714;2022-12-10T16:33:38;15.27;;;11.97;;
43070;SDS011;36278;47.952;21.714;2022-12-10T16:36:04;18.90;;;11.67;;
43070;SDS011;36278;47.952;21.714;2022-12-10T16:38:30;18.37;;;12.47;;
43070;SDS011;36278;47.952;21.714;2022-12-10T16:40:55;17.27;;;11.70;;
43070;SDS011;36278;47.952;21.714;2022-12-10T16:43:24;17.77;;;11.90;;
43070;SDS011;36278;47.952;21.714;2022-12-10T16:45:53;16.93;;;12.30;;
43070;SDS011;36278;47.952;21.714;2022-12-10T16:48:19;18.67;;;11.10;;
43070;SDS011;36278;47.952;21.714;2022-12-10T16:50:46;18.27;;;12.27;;